createdAt,value
2022-12-19T00:00:39.041Z,0
2022-12-19T00:01:39.773Z,0
2022-12-19T00:02:40.590Z,0
2022-12-19T00:03:41.046Z,0
2022-12-19T00:04:41.604Z,0
2022-12-19T00:05:42.204Z,0
2022-12-19T00:06:44.129Z,0
2022-12-19T00:07:44.375Z,0
2022-12-19T00:08:44.969Z,0
2022-12-19T00:09:45.580Z,0
2022-12-19T00:10:46.175Z,0
2022-12-19T00:11:46.782Z,0
2022-12-19T00:12:47.376Z,0
2022-12-19T00:13:47.991Z,0
2022-12-19T00:14:48.584Z,0
2022-12-19T00:15:49.263Z,0
2022-12-19T00:16:49.816Z,0
2022-12-19T00:17:50.492Z,0
2022-12-19T00:18:51.030Z,0
2022-12-19T00:19:52.617Z,0
2022-12-19T00:20:53.213Z,0
2022-12-19T00:21:53.804Z,0
2022-12-19T00:22:54.398Z,0
2022-12-19T00:23:54.992Z,0
2022-12-19T00:24:55.589Z,0
2022-12-19T00:25:56.180Z,0
2022-12-19T00:26:57.445Z,0
2022-12-19T00:27:59.031Z,0
2022-12-19T00:28:59.642Z,0
2022-12-19T00:30:00.240Z,0
2022-12-19T00:31:00.833Z,0
2022-12-19T00:32:01.495Z,0
2022-12-19T00:33:02.098Z,0
2022-12-19T00:34:02.643Z,0
2022-12-19T00:35:03.235Z,0
2022-12-19T00:36:03.837Z,0
2022-12-19T00:37:04.422Z,0
2022-12-19T00:38:05.035Z,0
2022-12-19T00:39:08.383Z,0
2022-12-19T00:40:07.217Z,0
2022-12-19T00:41:07.808Z,0
2022-12-19T00:42:08.402Z,0
2022-12-19T00:43:08.995Z,0
2022-12-19T00:44:09.588Z,0
2022-12-19T00:45:10.182Z,0
2022-12-19T00:46:10.806Z,0
2022-12-19T00:47:11.369Z,0
2022-12-19T00:48:12.027Z,0
2022-12-19T00:49:12.571Z,0
2022-12-19T00:50:13.164Z,0
2022-12-19T00:51:13.776Z,0
2022-12-19T00:52:14.348Z,0
2022-12-19T00:53:14.944Z,0
2022-12-19T00:54:15.536Z,0
2022-12-19T00:55:18.915Z,0
2022-12-19T00:56:16.872Z,0
2022-12-19T00:57:17.484Z,0
2022-12-19T00:58:18.077Z,0
2022-12-19T00:59:23.941Z,0
2022-12-19T01:00:20.274Z,0
2022-12-19T01:01:21.041Z,0
2022-12-19T01:02:21.591Z,0
2022-12-19T01:03:22.235Z,0
2022-12-19T01:04:31.217Z,0
2022-12-19T01:05:24.354Z,0
2022-12-19T01:06:24.944Z,0
2022-12-19T01:07:25.699Z,0
2022-12-19T01:08:26.293Z,0
2022-12-19T01:09:27.880Z,0
2022-12-19T01:10:28.474Z,0
2022-12-19T01:11:29.069Z,0
2022-12-19T01:12:29.666Z,0
2022-12-19T01:13:30.277Z,0
2022-12-19T01:14:30.867Z,0
2022-12-19T01:15:31.461Z,0
2022-12-19T01:16:32.130Z,0
2022-12-19T01:17:32.665Z,0
2022-12-19T01:18:33.326Z,0
2022-12-19T01:19:35.156Z,0
2022-12-19T01:20:35.461Z,0
2022-12-19T01:21:36.075Z,0
2022-12-19T01:22:36.688Z,0
2022-12-19T01:23:37.300Z,0
2022-12-19T01:24:37.897Z,0
2022-12-19T01:25:39.150Z,0
2022-12-19T01:26:40.075Z,0
2022-12-19T01:27:40.678Z,0
2022-12-19T01:28:41.263Z,0
2022-12-19T01:29:52.335Z,0
2022-12-19T01:30:43.442Z,0
2022-12-19T01:31:44.091Z,0
2022-12-19T01:32:44.662Z,0
2022-12-19T01:33:45.320Z,0
2022-12-19T01:34:45.863Z,0
2022-12-19T01:35:46.477Z,0
2022-12-19T01:36:47.073Z,0
2022-12-19T01:37:47.662Z,0
2022-12-19T01:38:48.258Z,0
2022-12-19T01:39:48.851Z,0
2022-12-19T01:40:49.448Z,0
2022-12-19T01:41:50.057Z,0
2022-12-19T01:42:50.652Z,0
2022-12-19T01:43:51.242Z,0
2022-12-19T01:44:51.837Z,0
2022-12-19T01:45:52.454Z,0
2022-12-19T01:46:53.033Z,0
2022-12-19T01:47:53.851Z,0
2022-12-19T01:48:54.460Z,0
2022-12-19T01:49:54.999Z,0
2022-12-19T01:51:01.016Z,0
2022-12-19T01:51:57.201Z,0
2022-12-19T01:52:57.793Z,0
2022-12-19T01:53:58.389Z,0
2022-12-19T01:54:58.982Z,0
2022-12-19T01:55:59.575Z,0
2022-12-19T01:57:00.135Z,0
2022-12-19T01:58:00.733Z,0
2022-12-19T01:59:06.419Z,0
2022-12-19T02:00:02.921Z,0
2022-12-19T02:01:03.542Z,0
2022-12-19T02:02:04.331Z,0
2022-12-19T02:03:04.997Z,0
2022-12-19T02:04:06.601Z,0
2022-12-19T02:05:07.145Z,0
2022-12-19T02:06:07.756Z,0
2022-12-19T02:07:15.880Z,0
2022-12-19T02:08:09.936Z,0
2022-12-19T02:09:10.530Z,0
2022-12-19T02:10:11.125Z,0
2022-12-19T02:11:11.716Z,0
2022-12-19T02:12:12.676Z,0
2022-12-19T02:13:13.285Z,0
2022-12-19T02:14:13.922Z,0
2022-12-19T02:15:14.477Z,0
2022-12-19T02:16:15.105Z,0
2022-12-19T02:17:15.679Z,0
2022-12-19T02:18:16.276Z,0
2022-12-19T02:19:16.959Z,0
2022-12-19T02:20:17.502Z,0
2022-12-19T02:21:18.090Z,0
2022-12-19T02:22:19.198Z,0
2022-12-19T02:23:19.796Z,0
2022-12-19T02:24:20.388Z,0
2022-12-19T02:25:20.981Z,0
2022-12-19T02:26:21.595Z,0
2022-12-19T02:27:22.194Z,0
2022-12-19T02:28:22.785Z,0
2022-12-19T02:29:23.374Z,0
2022-12-19T02:30:23.971Z,0
2022-12-19T02:31:24.579Z,0
2022-12-19T02:32:25.179Z,0
2022-12-19T02:33:25.774Z,0
2022-12-19T02:34:26.446Z,0
2022-12-19T02:35:26.992Z,0
2022-12-19T02:36:27.587Z,0
2022-12-19T02:37:28.168Z,0
2022-12-19T02:38:29.554Z,0
2022-12-19T02:39:30.583Z,0
2022-12-19T02:40:31.727Z,0
2022-12-19T02:41:33.200Z,0
2022-12-19T02:42:33.816Z,0
2022-12-19T02:43:34.410Z,0
2022-12-19T02:44:35.004Z,0
2022-12-19T02:45:35.624Z,0
2022-12-19T02:46:36.192Z,0
2022-12-19T02:47:36.787Z,0
2022-12-19T02:48:37.378Z,0
2022-12-19T02:49:38.067Z,0
2022-12-19T02:50:38.601Z,0
2022-12-19T02:51:39.193Z,0
2022-12-19T02:52:39.789Z,0
2022-12-19T02:53:40.380Z,0
2022-12-19T02:54:42.340Z,0
2022-12-19T02:55:42.561Z,0
2022-12-19T02:56:43.179Z,0
2022-12-19T02:57:43.771Z,0
2022-12-19T02:58:44.383Z,0
2022-12-19T02:59:45.965Z,0
2022-12-19T03:00:46.568Z,0
2022-12-19T03:01:47.240Z,0
2022-12-19T03:02:55.000Z,0
2022-12-19T03:03:49.371Z,0
2022-12-19T03:04:50.059Z,0
2022-12-19T03:05:50.590Z,0
2022-12-19T03:06:51.190Z,0
2022-12-19T03:07:51.780Z,0
2022-12-19T03:08:52.383Z,0
2022-12-19T03:09:52.973Z,0
2022-12-19T03:10:53.567Z,0
2022-12-19T03:11:54.159Z,0
2022-12-19T03:12:54.758Z,0
2022-12-19T03:13:55.350Z,0
2022-12-19T03:14:55.946Z,0
2022-12-19T03:15:56.539Z,0
2022-12-19T03:16:57.166Z,0
2022-12-19T03:17:57.747Z,0
2022-12-19T03:18:58.341Z,0
2022-12-19T03:19:59.004Z,0
2022-12-19T03:20:59.544Z,0
2022-12-19T03:22:00.157Z,0
2022-12-19T03:23:00.772Z,0
2022-12-19T03:24:01.383Z,0
2022-12-19T03:25:01.974Z,0
2022-12-19T03:26:02.571Z,0
2022-12-19T03:27:03.166Z,0
2022-12-19T03:28:03.761Z,0
2022-12-19T03:29:04.355Z,0
2022-12-19T03:30:04.970Z,0
2022-12-19T03:31:05.638Z,0
2022-12-19T03:32:06.187Z,0
2022-12-19T03:33:06.773Z,0
2022-12-19T03:34:07.380Z,0
2022-12-19T03:35:08.929Z,0
2022-12-19T03:36:09.462Z,0
2022-12-19T03:37:10.057Z,0
2022-12-19T03:38:10.651Z,0
2022-12-19T03:39:11.332Z,0
2022-12-19T03:40:11.891Z,0
2022-12-19T03:41:12.528Z,0
2022-12-19T03:42:13.098Z,0
2022-12-19T03:43:13.711Z,0
2022-12-19T03:44:14.485Z,0
2022-12-19T03:45:15.098Z,0
2022-12-19T03:46:15.850Z,0
2022-12-19T03:47:16.418Z,0
2022-12-19T03:48:17.014Z,0
2022-12-19T03:49:17.625Z,0
2022-12-19T03:50:18.291Z,0
2022-12-19T03:51:18.824Z,0
2022-12-19T03:52:19.432Z,0
2022-12-19T03:53:20.012Z,0
2022-12-19T03:54:20.613Z,0
2022-12-19T03:55:21.208Z,0
2022-12-19T03:56:21.796Z,0
2022-12-19T03:57:22.391Z,0
2022-12-19T03:58:22.983Z,0
2022-12-19T03:59:23.596Z,0
2022-12-19T04:00:24.196Z,0
2022-12-19T04:01:24.868Z,0
2022-12-19T04:02:25.595Z,0
2022-12-19T04:03:26.241Z,0
2022-12-19T04:04:26.844Z,0
2022-12-19T04:05:27.509Z,0
2022-12-19T04:06:28.042Z,0
2022-12-19T04:07:28.652Z,0
2022-12-19T04:08:29.229Z,0
2022-12-19T04:09:29.826Z,0
2022-12-19T04:10:30.417Z,0
2022-12-19T04:11:31.026Z,0
2022-12-19T04:12:31.608Z,0
2022-12-19T04:13:32.202Z,0
2022-12-19T04:14:32.801Z,0
2022-12-19T04:15:33.402Z,0
2022-12-19T04:16:34.010Z,0
2022-12-19T04:17:34.605Z,0
2022-12-19T04:18:35.200Z,0
2022-12-19T04:19:41.090Z,0
2022-12-19T04:20:37.381Z,0
2022-12-19T04:21:37.975Z,0
2022-12-19T04:22:38.568Z,0
2022-12-19T04:23:39.164Z,0
2022-12-19T04:24:39.758Z,0
2022-12-19T04:25:40.360Z,0
2022-12-19T04:26:40.944Z,0
2022-12-19T04:27:41.537Z,0
2022-12-19T04:28:42.131Z,0
2022-12-19T04:29:42.723Z,0
2022-12-19T04:30:43.385Z,0
2022-12-19T04:31:43.942Z,0
2022-12-19T04:32:44.536Z,0
2022-12-19T04:33:45.130Z,0
2022-12-19T04:34:45.724Z,0
2022-12-19T04:35:46.383Z,0
2022-12-19T04:36:46.923Z,0
2022-12-19T04:37:47.518Z,0
2022-12-19T04:38:48.111Z,0
2022-12-19T04:39:48.702Z,0
2022-12-19T04:40:49.303Z,0
2022-12-19T04:41:49.910Z,0
2022-12-19T04:42:50.504Z,0
2022-12-19T04:43:51.103Z,0
2022-12-19T04:44:51.698Z,0
2022-12-19T04:45:57.119Z,0
2022-12-19T04:46:53.917Z,0
2022-12-19T04:47:54.476Z,0
2022-12-19T04:48:55.086Z,0
2022-12-19T04:49:55.852Z,0
2022-12-19T04:50:56.531Z,0
2022-12-19T04:51:57.067Z,0
2022-12-19T04:52:57.658Z,0
2022-12-19T04:53:58.253Z,0
2022-12-19T04:54:58.850Z,0
2022-12-19T04:55:59.462Z,0
2022-12-19T04:57:00.053Z,0
2022-12-19T04:58:00.644Z,0
2022-12-19T04:59:01.244Z,0
2022-12-19T05:00:01.834Z,0
2022-12-19T05:01:02.490Z,0
2022-12-19T05:02:03.204Z,0
2022-12-19T05:03:03.905Z,0
2022-12-19T05:04:05.029Z,0
2022-12-19T05:05:05.689Z,0
2022-12-19T05:06:06.356Z,0
2022-12-19T05:07:06.902Z,0
2022-12-19T05:08:07.517Z,0
2022-12-19T05:09:08.109Z,0
2022-12-19T05:10:08.696Z,0
2022-12-19T05:11:11.354Z,0
2022-12-19T05:12:10.879Z,0
2022-12-19T05:13:11.471Z,0
2022-12-19T05:14:12.086Z,0
2022-12-19T05:15:12.680Z,0
2022-12-19T05:16:13.376Z,0
2022-12-19T05:17:13.893Z,0
2022-12-19T05:18:14.489Z,0
2022-12-19T05:19:15.939Z,0
2022-12-19T05:20:16.553Z,0
2022-12-19T05:21:17.233Z,0
2022-12-19T05:22:17.768Z,0
2022-12-19T05:23:18.368Z,0
2022-12-19T05:24:18.957Z,0
2022-12-19T05:25:19.565Z,0
2022-12-19T05:26:20.146Z,0
2022-12-19T05:27:20.741Z,0
2022-12-19T05:28:21.352Z,0
2022-12-19T05:29:21.948Z,0
2022-12-19T05:30:22.539Z,0
2022-12-19T05:31:23.167Z,0
2022-12-19T05:32:23.918Z,0
2022-12-19T05:33:24.508Z,0
2022-12-19T05:34:25.123Z,0
2022-12-19T05:35:25.714Z,0
2022-12-19T05:36:32.155Z,0
2022-12-19T05:37:26.924Z,0
2022-12-19T05:38:27.526Z,0
2022-12-19T05:39:28.132Z,0
2022-12-19T05:40:29.271Z,0
2022-12-19T05:41:29.894Z,0
2022-12-19T05:42:30.484Z,0
2022-12-19T05:43:31.078Z,0
2022-12-19T05:44:31.674Z,0
2022-12-19T05:45:32.287Z,0
2022-12-19T05:46:32.947Z,0
2022-12-19T05:47:33.491Z,0
2022-12-19T05:48:34.081Z,0
2022-12-19T05:49:34.680Z,0
2022-12-19T05:50:35.270Z,0
2022-12-19T05:51:35.935Z,0
2022-12-19T05:52:36.492Z,0
2022-12-19T05:53:37.209Z,0
2022-12-19T05:54:37.801Z,0
2022-12-19T05:55:38.394Z,0
2022-12-19T05:56:38.995Z,0
2022-12-19T05:57:39.581Z,0
2022-12-19T05:58:40.171Z,0
2022-12-19T05:59:40.773Z,0
2022-12-19T06:00:41.370Z,0
2022-12-19T06:01:42.016Z,0
2022-12-19T06:02:42.669Z,0
2022-12-19T06:03:43.323Z,0
2022-12-19T06:04:43.857Z,0
2022-12-19T06:05:44.467Z,0
2022-12-19T06:06:45.115Z,0
2022-12-19T06:07:45.647Z,0
2022-12-19T06:08:46.242Z,0
2022-12-19T06:09:46.867Z,0
2022-12-19T06:10:47.424Z,0
2022-12-19T06:11:48.031Z,0
2022-12-19T06:12:48.609Z,0
2022-12-19T06:13:49.207Z,0
2022-12-19T06:14:49.802Z,0
2022-12-19T06:15:50.433Z,0
2022-12-19T06:16:50.982Z,0
2022-12-19T06:17:51.576Z,0
2022-12-19T06:18:52.189Z,0
2022-12-19T06:19:52.785Z,0
2022-12-19T06:20:53.396Z,0
2022-12-19T06:21:54.056Z,0
2022-12-19T06:22:54.622Z,0
2022-12-19T06:23:55.198Z,0
2022-12-19T06:24:55.785Z,0
2022-12-19T06:25:56.379Z,0
2022-12-19T06:26:56.973Z,0
2022-12-19T06:27:57.570Z,0
2022-12-19T06:28:58.172Z,0
2022-12-19T06:29:58.777Z,0
2022-12-19T06:30:59.695Z,0
2022-12-19T06:32:00.345Z,0
2022-12-19T06:33:00.904Z,0
2022-12-19T06:34:01.502Z,0
2022-12-19T06:35:04.463Z,0
2022-12-19T06:36:03.574Z,0
2022-12-19T06:37:08.131Z,0
2022-12-19T06:38:04.775Z,0
2022-12-19T06:39:05.399Z,0
2022-12-19T06:40:05.987Z,0
2022-12-19T06:41:06.582Z,0
2022-12-19T06:42:07.175Z,0
2022-12-19T06:43:07.770Z,0
2022-12-19T06:44:08.361Z,0
2022-12-19T06:45:09.929Z,0
2022-12-19T06:46:10.656Z,0
2022-12-19T06:47:11.249Z,0
2022-12-19T06:48:11.849Z,0
2022-12-19T06:49:12.455Z,0
2022-12-19T06:50:13.055Z,0
2022-12-19T06:51:13.649Z,0
2022-12-19T06:52:14.343Z,0
2022-12-19T06:53:14.852Z,0
2022-12-19T06:54:15.634Z,0
2022-12-19T06:55:16.248Z,0
2022-12-19T06:56:16.844Z,0
2022-12-19T06:57:17.459Z,0
2022-12-19T06:58:22.713Z,0
2022-12-19T06:59:19.641Z,0
2022-12-19T07:00:20.238Z,0
2022-12-19T07:01:20.960Z,0
2022-12-19T07:02:21.594Z,0
2022-12-19T07:03:22.237Z,0
2022-12-19T07:04:22.831Z,0
2022-12-19T07:05:23.424Z,0
2022-12-19T07:06:24.024Z,0
2022-12-19T07:07:24.748Z,0
2022-12-19T07:08:25.241Z,0
2022-12-19T07:09:25.834Z,0
2022-12-19T07:10:26.469Z,0
2022-12-19T07:11:27.036Z,0
2022-12-19T07:12:27.634Z,0
2022-12-19T07:13:28.220Z,0
2022-12-19T07:14:28.830Z,0
2022-12-19T07:15:29.432Z,0
2022-12-19T07:16:30.075Z,0
2022-12-19T07:17:30.621Z,0
2022-12-19T07:18:31.215Z,0
2022-12-19T07:19:31.809Z,0
2022-12-19T07:20:32.405Z,0
2022-12-19T07:21:32.999Z,0
2022-12-19T07:22:33.665Z,0
2022-12-19T07:23:34.207Z,0
2022-12-19T07:24:34.799Z,0
2022-12-19T07:25:35.394Z,0
2022-12-19T07:26:36.003Z,0
2022-12-19T07:27:36.758Z,0
2022-12-19T07:28:37.377Z,0
2022-12-19T07:29:37.951Z,0
2022-12-19T07:30:38.574Z,0
2022-12-19T07:31:39.217Z,5
2022-12-19T07:32:39.755Z,0
2022-12-19T07:33:40.353Z,5
2022-12-19T07:34:40.962Z,5
2022-12-19T07:35:41.558Z,5
2022-12-19T07:36:42.153Z,5
2022-12-19T07:37:42.812Z,5
2022-12-19T07:38:43.356Z,5
2022-12-19T07:39:43.973Z,11
2022-12-19T07:40:44.578Z,11
2022-12-19T07:41:45.166Z,11
2022-12-19T07:42:45.762Z,11
2022-12-19T07:43:46.360Z,16
2022-12-19T07:44:46.954Z,16
2022-12-19T07:45:47.604Z,22
2022-12-19T07:46:48.229Z,22
2022-12-19T07:47:48.787Z,16
2022-12-19T07:48:49.381Z,16
2022-12-19T07:49:49.977Z,11
2022-12-19T07:50:50.571Z,11
2022-12-19T07:51:51.191Z,16
2022-12-19T07:52:51.861Z,16
2022-12-19T07:53:52.397Z,11
2022-12-19T07:54:52.992Z,16
2022-12-19T07:55:53.593Z,16
2022-12-19T07:56:54.186Z,16
2022-12-19T07:57:54.802Z,16
2022-12-19T07:58:55.401Z,16
2022-12-19T07:59:56.045Z,22
2022-12-19T08:00:56.751Z,16
2022-12-19T08:01:57.373Z,22
2022-12-19T08:02:58.357Z,28
2022-12-19T08:03:59.490Z,22
2022-12-19T08:05:00.079Z,28
2022-12-19T08:06:00.660Z,28
2022-12-19T08:07:01.248Z,28
2022-12-19T08:08:01.946Z,28
2022-12-19T08:09:02.472Z,22
2022-12-19T08:10:03.072Z,28
2022-12-19T08:11:03.669Z,28
2022-12-19T08:12:04.274Z,28
2022-12-19T08:13:04.864Z,28
2022-12-19T08:14:05.464Z,22
2022-12-19T08:15:06.077Z,33
2022-12-19T08:16:06.668Z,28
2022-12-19T08:17:22.741Z,33
2022-12-19T08:18:08.855Z,22
2022-12-19T08:19:09.654Z,28
2022-12-19T08:20:10.250Z,39
2022-12-19T08:21:10.847Z,39
2022-12-19T08:22:11.443Z,39
2022-12-19T08:23:12.110Z,39
2022-12-19T08:24:12.872Z,39
2022-12-19T08:25:13.491Z,45
2022-12-19T08:26:14.064Z,39
2022-12-19T08:27:14.668Z,45
2022-12-19T08:28:15.263Z,39
2022-12-19T08:29:15.867Z,50
2022-12-19T08:30:16.460Z,45
2022-12-19T08:31:17.105Z,50
2022-12-19T08:32:21.265Z,56
2022-12-19T08:33:19.265Z,45
2022-12-19T08:34:19.858Z,50
2022-12-19T08:35:20.459Z,50
2022-12-19T08:36:21.057Z,50
2022-12-19T08:37:21.655Z,50
2022-12-19T08:38:22.321Z,56
2022-12-19T08:39:22.863Z,50
2022-12-19T08:40:23.466Z,50
2022-12-19T08:41:24.081Z,56
2022-12-19T08:42:24.689Z,56
2022-12-19T08:43:25.295Z,50
2022-12-19T08:44:25.914Z,50
2022-12-19T08:45:26.531Z,61
2022-12-19T08:46:27.194Z,61
2022-12-19T08:47:27.737Z,67
2022-12-19T08:48:28.343Z,67
2022-12-19T08:49:28.935Z,61
2022-12-19T08:50:29.540Z,61
2022-12-19T08:51:30.147Z,61
2022-12-19T08:52:30.882Z,67
2022-12-19T08:53:31.551Z,73
2022-12-19T08:54:32.127Z,73
2022-12-19T08:55:32.728Z,67
2022-12-19T08:56:33.325Z,67
2022-12-19T08:57:33.922Z,73
2022-12-19T08:58:34.545Z,67
2022-12-19T08:59:35.112Z,73
2022-12-19T09:00:36.396Z,78
2022-12-19T09:01:37.094Z,73
2022-12-19T09:02:37.887Z,84
2022-12-19T09:03:53.725Z,84
2022-12-19T09:05:59.779Z,84
2022-12-19T09:06:03.332Z,78
2022-12-19T09:06:43.342Z,73
2022-12-19T09:07:43.935Z,84
2022-12-19T09:08:44.606Z,78
2022-12-19T09:09:45.186Z,90
2022-12-19T09:10:45.748Z,84
2022-12-19T09:11:47.916Z,84
2022-12-19T09:12:52.918Z,90
2022-12-19T09:13:49.522Z,78
2022-12-19T09:14:50.118Z,84
2022-12-19T09:15:50.719Z,84
2022-12-19T09:16:51.354Z,78
2022-12-19T09:17:51.912Z,78
2022-12-19T09:18:52.511Z,73
2022-12-19T09:19:53.107Z,78
2022-12-19T09:20:53.706Z,67
2022-12-19T09:21:54.304Z,78
2022-12-19T09:22:55.287Z,78
2022-12-19T09:23:58.268Z,95
2022-12-19T09:24:56.385Z,90
2022-12-19T09:25:56.980Z,84
2022-12-19T09:26:57.583Z,78
2022-12-19T09:28:28.218Z,78
2022-12-19T09:28:59.762Z,78
2022-12-19T09:30:00.367Z,84
2022-12-19T09:31:01.018Z,90
2022-12-19T09:32:01.594Z,78
2022-12-19T09:33:02.194Z,78
2022-12-19T09:34:02.791Z,90
2022-12-19T09:35:03.388Z,84
2022-12-19T09:36:03.988Z,90
2022-12-19T09:37:04.600Z,112
2022-12-19T09:38:05.189Z,135
2022-12-19T09:39:05.858Z,168
2022-12-19T09:40:06.402Z,168
2022-12-19T09:41:06.992Z,151
2022-12-19T09:42:07.593Z,151
2022-12-19T09:43:08.191Z,163
2022-12-19T09:44:08.787Z,157
2022-12-19T09:45:09.387Z,180
2022-12-19T09:46:11.011Z,180
2022-12-19T09:47:11.602Z,157
2022-12-19T09:48:12.215Z,185
2022-12-19T09:49:12.818Z,219
2022-12-19T09:50:13.417Z,264
2022-12-19T09:51:14.015Z,275
2022-12-19T09:52:14.612Z,292
2022-12-19T09:53:15.211Z,320
2022-12-19T09:54:16.875Z,303
2022-12-19T09:55:17.485Z,292
2022-12-19T09:56:18.087Z,337
2022-12-19T09:57:18.695Z,360
2022-12-19T09:58:19.322Z,365
2022-12-19T09:59:19.908Z,388
2022-12-19T10:00:20.552Z,405
2022-12-19T10:01:21.237Z,410
2022-12-19T10:02:21.996Z,416
2022-12-19T10:03:22.774Z,433
2022-12-19T10:04:23.400Z,438
2022-12-19T10:05:24.201Z,427
2022-12-19T10:07:18.250Z,438
2022-12-19T10:07:56.319Z,438
2022-12-19T10:08:28.973Z,438
2022-12-19T10:11:53.843Z,438
2022-12-19T10:12:24.468Z,433
2022-12-19T10:12:40.457Z,427
2022-12-19T10:12:45.180Z,427
2022-12-19T10:13:34.981Z,427
2022-12-19T10:14:36.107Z,421
2022-12-19T10:15:36.724Z,416
2022-12-19T10:16:37.308Z,410
2022-12-19T10:17:37.905Z,405
2022-12-19T10:18:38.506Z,399
2022-12-19T10:19:39.105Z,388
2022-12-19T10:20:39.720Z,376
2022-12-19T10:22:16.458Z,354
2022-12-19T10:22:41.899Z,348
2022-12-19T10:23:42.495Z,331
2022-12-19T10:24:43.164Z,315
2022-12-19T10:25:43.712Z,303
2022-12-19T10:26:44.309Z,286
2022-12-19T10:27:59.183Z,275
2022-12-19T10:28:45.521Z,258
2022-12-19T10:29:46.124Z,253
2022-12-19T10:30:46.815Z,258
2022-12-19T10:31:47.489Z,270
2022-12-19T10:32:49.009Z,286
2022-12-19T10:33:49.603Z,303
2022-12-19T10:34:50.234Z,315
2022-12-19T10:35:50.822Z,320
2022-12-19T10:37:53.659Z,303
2022-12-19T10:38:54.263Z,298
2022-12-19T10:39:54.932Z,292
2022-12-19T10:40:55.476Z,298
2022-12-19T10:41:56.103Z,303
2022-12-19T10:42:56.674Z,315
2022-12-19T10:43:58.280Z,320
2022-12-19T10:44:58.884Z,326
2022-12-19T10:45:59.579Z,326
2022-12-19T10:47:00.271Z,326
2022-12-19T10:48:01.760Z,337
2022-12-19T10:49:02.376Z,348
2022-12-19T10:50:09.265Z,354
2022-12-19T10:51:06.260Z,354
2022-12-19T10:52:06.182Z,343
2022-12-19T10:53:06.744Z,326
2022-12-19T10:54:07.332Z,320
2022-12-19T10:55:08.005Z,315
2022-12-19T10:56:08.554Z,309
2022-12-19T10:57:09.143Z,315
2022-12-19T10:58:09.753Z,320
2022-12-19T10:59:10.339Z,315
2022-12-19T11:00:11.935Z,309
2022-12-19T11:01:12.545Z,298
2022-12-19T11:02:13.188Z,281
2022-12-19T11:03:13.910Z,281
2022-12-19T11:04:15.460Z,286
2022-12-19T11:05:16.070Z,298
2022-12-19T11:06:16.655Z,303
2022-12-19T11:07:17.222Z,326
2022-12-19T11:08:18.065Z,331
2022-12-19T11:09:18.658Z,348
2022-12-19T11:11:03.239Z,371
2022-12-19T11:13:30.230Z,388
2022-12-19T11:16:13.059Z,388
2022-12-19T11:16:43.187Z,388
2022-12-19T11:17:16.520Z,382
2022-12-19T11:21:16.193Z,388
2022-12-19T11:23:45.725Z,382
2022-12-19T11:24:36.091Z,371
2022-12-19T11:27:07.687Z,365
2022-12-19T11:29:30.548Z,354
2022-12-19T11:29:39.513Z,343
2022-12-19T11:29:40.456Z,343
2022-12-19T11:29:40.989Z,371
2022-12-19T11:30:35.212Z,410
2022-12-19T11:30:36.555Z,421
2022-12-19T11:30:36.954Z,438
2022-12-19T11:30:38.165Z,354
2022-12-19T11:30:45.725Z,393
2022-12-19T11:30:48.000Z,433
2022-12-19T11:31:51.472Z,433
2022-12-19T11:32:49.937Z,433
2022-12-19T11:33:50.948Z,416
2022-12-19T11:34:51.538Z,393
2022-12-19T11:35:52.135Z,371
2022-12-19T11:36:52.734Z,354
2022-12-19T11:37:55.721Z,337
2022-12-19T11:38:54.925Z,320
2022-12-19T11:39:55.520Z,315
2022-12-19T11:40:56.190Z,315
2022-12-19T11:41:56.735Z,303
2022-12-19T11:43:33.814Z,298
2022-12-19T11:43:58.940Z,309
2022-12-19T11:44:59.545Z,331
2022-12-19T11:46:00.183Z,348
2022-12-19T11:47:00.738Z,360
2022-12-19T11:48:01.335Z,382
2022-12-19T11:49:01.934Z,421
2022-12-19T11:50:02.539Z,466
2022-12-19T11:51:03.147Z,500
2022-12-19T11:52:03.752Z,517
2022-12-19T11:53:07.704Z,540
2022-12-19T11:54:05.947Z,562
2022-12-19T11:55:06.543Z,573
2022-12-19T11:56:15.912Z,573
2022-12-19T11:57:07.758Z,573
2022-12-19T11:58:08.356Z,562
2022-12-19T11:59:08.955Z,568
2022-12-19T12:00:09.550Z,562
2022-12-19T12:01:10.169Z,562
2022-12-19T12:02:10.775Z,562
2022-12-19T12:03:11.439Z,562
2022-12-19T12:04:12.127Z,562
2022-12-19T12:05:12.744Z,556
2022-12-19T12:06:13.357Z,540
2022-12-19T12:07:23.430Z,523
2022-12-19T12:08:54.726Z,489
2022-12-19T12:11:58.414Z,455
2022-12-19T12:15:19.069Z,410
2022-12-19T12:16:38.669Z,405
2022-12-19T12:17:08.304Z,399
2022-12-19T12:21:15.149Z,405
2022-12-19T12:21:17.172Z,393
2022-12-19T12:25:41.899Z,354
2022-12-19T12:28:19.540Z,371
2022-12-19T12:30:59.260Z,399
2022-12-19T12:30:59.923Z,337
2022-12-19T12:31:00.357Z,382
2022-12-19T12:31:12.379Z,365
2022-12-19T12:31:23.833Z,320
2022-12-19T12:31:26.202Z,298
2022-12-19T12:31:42.405Z,371
2022-12-19T12:31:45.110Z,343
2022-12-19T12:31:48.871Z,399
2022-12-19T12:31:50.061Z,365
2022-12-19T12:31:56.046Z,303
2022-12-19T12:32:02.058Z,292
2022-12-19T12:32:04.003Z,298
2022-12-19T12:32:05.069Z,393
2022-12-19T12:35:32.948Z,382
2022-12-19T12:35:33.434Z,360
2022-12-19T12:35:46.915Z,348
2022-12-19T12:38:00.497Z,326
2022-12-19T12:38:18.704Z,315
2022-12-19T12:39:55.895Z,354
2022-12-19T12:40:56.494Z,371
2022-12-19T12:41:57.098Z,376
2022-12-19T12:42:57.693Z,365
2022-12-19T12:43:59.288Z,405
2022-12-19T12:44:59.888Z,433
2022-12-19T12:46:00.504Z,427
2022-12-19T12:47:01.091Z,421
2022-12-19T12:48:02.221Z,416
2022-12-19T12:49:02.842Z,410
2022-12-19T12:50:03.466Z,399
2022-12-19T12:51:04.053Z,382
2022-12-19T12:52:04.656Z,371
2022-12-19T12:53:05.269Z,343
2022-12-19T12:54:05.863Z,320
2022-12-19T12:55:06.458Z,315
2022-12-19T12:56:07.371Z,320
2022-12-19T12:57:07.918Z,303
2022-12-19T12:58:13.746Z,286
2022-12-19T12:59:10.098Z,270
2022-12-19T13:00:10.720Z,236
2022-12-19T13:01:11.395Z,208
2022-12-19T13:02:12.170Z,196
2022-12-19T13:03:12.772Z,196
2022-12-19T13:04:13.184Z,202
2022-12-19T13:05:13.781Z,213
2022-12-19T13:06:14.372Z,202
2022-12-19T13:07:14.965Z,185
2022-12-19T13:08:15.586Z,174
2022-12-19T13:09:16.184Z,174
2022-12-19T13:10:16.788Z,168
2022-12-19T13:11:17.384Z,163
2022-12-19T13:12:17.987Z,151
2022-12-19T13:13:24.169Z,140
2022-12-19T13:14:20.163Z,135
2022-12-19T13:15:20.758Z,129
2022-12-19T13:16:21.363Z,129
2022-12-19T13:17:21.952Z,140
2022-12-19T13:18:22.550Z,163
2022-12-19T13:19:27.839Z,163
2022-12-19T13:20:25.995Z,168
2022-12-19T13:21:25.366Z,174
2022-12-19T13:22:25.954Z,146
2022-12-19T13:23:26.544Z,129
2022-12-19T13:24:27.150Z,151
2022-12-19T13:25:27.755Z,191
2022-12-19T13:26:29.351Z,219
2022-12-19T13:27:29.966Z,258
2022-12-19T13:28:30.569Z,264
2022-12-19T13:29:31.158Z,253
2022-12-19T13:30:31.825Z,219
2022-12-19T13:31:32.542Z,213
2022-12-19T13:32:33.170Z,219
2022-12-19T13:33:34.756Z,191
2022-12-19T13:34:35.351Z,185
2022-12-19T13:38:45.900Z,191
2022-12-19T13:39:54.031Z,196
2022-12-19T13:39:54.166Z,196
2022-12-19T13:39:55.644Z,180
2022-12-19T13:39:57.246Z,185
2022-12-19T13:40:42.932Z,163
2022-12-19T13:41:43.526Z,151
2022-12-19T13:42:44.143Z,135
2022-12-19T13:43:44.719Z,118
2022-12-19T13:44:45.309Z,112
2022-12-19T13:45:45.930Z,129
2022-12-19T13:46:46.499Z,140
2022-12-19T13:47:47.103Z,135
2022-12-19T13:48:47.690Z,129
2022-12-19T13:49:48.284Z,135
2022-12-19T13:50:49.727Z,135
2022-12-19T13:51:50.363Z,135
2022-12-19T13:52:50.949Z,135
2022-12-19T13:53:57.511Z,129
2022-12-19T13:54:53.133Z,129
2022-12-19T13:55:53.735Z,123
2022-12-19T13:56:54.351Z,112
2022-12-19T13:57:54.950Z,112
2022-12-19T13:58:55.557Z,112
2022-12-19T14:00:00.243Z,112
2022-12-19T14:00:57.754Z,112
2022-12-19T14:01:58.383Z,106
2022-12-19T14:02:59.195Z,101
2022-12-19T14:04:02.639Z,95
2022-12-19T14:05:01.401Z,95
2022-12-19T14:06:16.536Z,90
2022-12-19T14:07:03.593Z,84
2022-12-19T14:08:04.185Z,78
2022-12-19T14:11:24.115Z,73
2022-12-19T14:11:34.962Z,67
2022-12-19T14:11:44.886Z,73
2022-12-19T14:13:52.247Z,67
2022-12-19T14:13:54.336Z,73
2022-12-19T14:14:17.733Z,73
2022-12-19T14:15:13.870Z,78
2022-12-19T14:16:13.998Z,73
2022-12-19T14:17:14.579Z,67
2022-12-19T14:18:43.398Z,61
2022-12-19T14:19:15.785Z,61
2022-12-19T14:22:01.539Z,56
2022-12-19T14:22:11.604Z,56
2022-12-19T14:22:25.242Z,56
2022-12-19T14:23:42.706Z,56
2022-12-19T14:24:22.742Z,61
2022-12-19T14:27:51.723Z,61
2022-12-19T14:28:16.900Z,50
2022-12-19T14:28:20.906Z,56
2022-12-19T14:28:30.299Z,45
2022-12-19T14:30:26.457Z,39
2022-12-19T14:30:32.734Z,39
2022-12-19T14:31:31.957Z,39
2022-12-19T14:33:40.052Z,39
2022-12-19T14:33:43.625Z,33
2022-12-19T14:35:23.655Z,33
2022-12-19T14:36:10.282Z,33
2022-12-19T14:36:37.907Z,33
2022-12-19T14:39:19.687Z,33
2022-12-19T14:39:26.346Z,28
2022-12-19T14:39:41.679Z,28